sensor_id;sensor_type;location;lat;lon;timestamp;P1;durP1;ratioP1;P2;durP2;ratioP2
22837;SDS011;11585;51.450;-0.240;2022-11-21T00:00:58;19.15;;;2.67;;
22837;SDS011;11585;51.450;-0.240;2022-11-21T00:03:24;8.63;;;2.63;;
22837;SDS011;11585;51.450;-0.240;2022-11-21T00:05:49;12.80;;;2.50;;
22837;SDS011;11585;51.450;-0.240;2022-11-21T00:08:17;11.80;;;2.58;;
22837;SDS011;11585;51.450;-0.240;2022-11-21T00:10:44;12.75;;;3.20;;
22837;SDS011;11585;51.450;-0.240;2022-11-21T00:16:14;12.02;;;2.53;;
22837;SDS011;11585;51.450;-0.240;2022-11-21T00:18:40;9.63;;;2.97;;
22837;SDS011;11585;51.450;-0.240;2022-11-21T00:21:17;14.38;;;2.80;;
22837;SDS011;11585;51.450;-0.240;2022-11-21T00:26:16;14.70;;;3.28;;
22837;SDS011;11585;51.450;-0.240;2022-11-21T00:28:42;9.75;;;2.83;;
22837;SDS011;11585;51.450;-0.240;2022-11-21T00:31:16;11.85;;;2.63;;
22837;SDS011;11585;51.450;-0.240;2022-11-21T00:37:05;12.82;;;3.25;;
22837;SDS011;11585;51.450;-0.240;2022-11-21T00:39:31;13.27;;;3.03;;
22837;SDS011;11585;51.450;-0.240;2022-11-21T00:41:56;16.70;;;2.78;;
22837;SDS011;11585;51.450;-0.240;2022-11-21T00:44:23;9.57;;;3.20;;
22837;SDS011;11585;51.450;-0.240;2022-11-21T00:46:49;20.35;;;3.33;;
22837;SDS011;11585;51.450;-0.240;2022-11-21T00:49:15;15.63;;;3.17;;
22837;SDS011;11585;51.450;-0.240;2022-11-21T00:51:40;10.00;;;2.70;;
22837;SDS011;11585;51.450;-0.240;2022-11-21T00:56:57;14.25;;;3.40;;
22837;SDS011;11585;51.450;-0.240;2022-11-21T00:59:23;11.73;;;2.42;;
22837;SDS011;11585;51.450;-0.240;2022-11-21T01:01:48;14.50;;;2.70;;
22837;SDS011;11585;51.450;-0.240;2022-11-21T01:07:36;20.55;;;3.15;;
22837;SDS011;11585;51.450;-0.240;2022-11-21T01:10:01;13.15;;;2.60;;
22837;SDS011;11585;51.450;-0.240;2022-11-21T01:12:27;9.48;;;2.20;;
22837;SDS011;11585;51.450;-0.240;2022-11-21T01:14:54;19.20;;;3.10;;
22837;SDS011;11585;51.450;-0.240;2022-11-21T01:17:19;22.48;;;3.03;;
22837;SDS011;11585;51.450;-0.240;2022-11-21T01:19:45;13.27;;;2.88;;
22837;SDS011;11585;51.450;-0.240;2022-11-21T01:22:11;12.38;;;2.95;;
22837;SDS011;11585;51.450;-0.240;2022-11-21T01:27:07;16.70;;;3.33;;
22837;SDS011;11585;51.450;-0.240;2022-11-21T01:29:33;12.10;;;2.83;;
22837;SDS011;11585;51.450;-0.240;2022-11-21T01:31:58;16.40;;;2.70;;
22837;SDS011;11585;51.450;-0.240;2022-11-21T01:37:29;18.65;;;2.90;;
22837;SDS011;11585;51.450;-0.240;2022-11-21T01:39:54;11.07;;;2.92;;
22837;SDS011;11585;51.450;-0.240;2022-11-21T01:42:20;17.40;;;3.10;;
22837;SDS011;11585;51.450;-0.240;2022-11-21T01:44:50;20.95;;;2.92;;
22837;SDS011;11585;51.450;-0.240;2022-11-21T01:47:18;18.00;;;3.20;;
22837;SDS011;11585;51.450;-0.240;2022-11-21T01:49:46;20.83;;;3.38;;
22837;SDS011;11585;51.450;-0.240;2022-11-21T01:52:21;19.33;;;3.13;;
22837;SDS011;11585;51.450;-0.240;2022-11-21T01:57:21;17.58;;;2.88;;
22837;SDS011;11585;51.450;-0.240;2022-11-21T01:59:55;9.85;;;2.45;;
22837;SDS011;11585;51.450;-0.240;2022-11-21T02:02:38;11.27;;;2.60;;
22837;SDS011;11585;51.450;-0.240;2022-11-21T02:05:11;17.85;;;2.70;;
22837;SDS011;11585;51.450;-0.240;2022-11-21T02:07:43;11.85;;;2.78;;
22837;SDS011;11585;51.450;-0.240;2022-11-21T02:10:12;17.70;;;3.10;;
22837;SDS011;11585;51.450;-0.240;2022-11-21T02:12:47;10.57;;;2.50;;
22837;SDS011;11585;51.450;-0.240;2022-11-21T02:15:24;14.25;;;2.10;;
22837;SDS011;11585;51.450;-0.240;2022-11-21T02:17:54;14.77;;;3.17;;
22837;SDS011;11585;51.450;-0.240;2022-11-21T02:20:29;12.95;;;2.78;;
22837;SDS011;11585;51.450;-0.240;2022-11-21T02:29:45;11.90;;;2.63;;
22837;SDS011;11585;51.450;-0.240;2022-11-21T02:32:25;12.95;;;2.50;;
22837;SDS011;11585;51.450;-0.240;2022-11-21T02:38:21;17.05;;;3.10;;
22837;SDS011;11585;51.450;-0.240;2022-11-21T02:40:57;14.25;;;2.45;;
22837;SDS011;11585;51.450;-0.240;2022-11-21T02:46:49;11.57;;;2.97;;
22837;SDS011;11585;51.450;-0.240;2022-11-21T02:52:17;25.23;;;3.17;;
22837;SDS011;11585;51.450;-0.240;2022-11-21T02:54:50;12.57;;;2.33;;
22837;SDS011;11585;51.450;-0.240;2022-11-21T02:57:16;17.10;;;2.40;;
22837;SDS011;11585;51.450;-0.240;2022-11-21T02:59:44;8.15;;;2.72;;
22837;SDS011;11585;51.450;-0.240;2022-11-21T03:02:10;9.82;;;2.08;;
22837;SDS011;11585;51.450;-0.240;2022-11-21T03:07:23;19.60;;;2.35;;
22837;SDS011;11585;51.450;-0.240;2022-11-21T03:09:52;16.90;;;3.05;;
22837;SDS011;11585;51.450;-0.240;2022-11-21T03:12:17;13.48;;;2.85;;
22837;SDS011;11585;51.450;-0.240;2022-11-21T03:17:13;13.02;;;2.63;;
22837;SDS011;11585;51.450;-0.240;2022-11-21T03:19:38;11.95;;;2.42;;
22837;SDS011;11585;51.450;-0.240;2022-11-21T03:22:04;15.52;;;2.58;;
22837;SDS011;11585;51.450;-0.240;2022-11-21T03:30:58;16.15;;;2.38;;
22837;SDS011;11585;51.450;-0.240;2022-11-21T03:33:23;8.82;;;1.98;;
22837;SDS011;11585;51.450;-0.240;2022-11-21T03:35:49;12.32;;;2.72;;
22837;SDS011;11585;51.450;-0.240;2022-11-21T03:38:24;22.15;;;2.80;;
22837;SDS011;11585;51.450;-0.240;2022-11-21T03:40:52;8.45;;;2.03;;
22837;SDS011;11585;51.450;-0.240;2022-11-21T03:46:04;8.48;;;1.83;;
22837;SDS011;11585;51.450;-0.240;2022-11-21T03:48:36;16.08;;;2.08;;
22837;SDS011;11585;51.450;-0.240;2022-11-21T03:51:04;12.98;;;2.15;;
22837;SDS011;11585;51.450;-0.240;2022-11-21T03:56:51;21.33;;;3.28;;
22837;SDS011;11585;51.450;-0.240;2022-11-21T03:59:20;22.30;;;3.00;;
22837;SDS011;11585;51.450;-0.240;2022-11-21T04:01:45;12.98;;;2.25;;
22837;SDS011;11585;51.450;-0.240;2022-11-21T04:07:33;12.60;;;2.15;;
22837;SDS011;11585;51.450;-0.240;2022-11-21T04:10:02;10.50;;;2.15;;
22837;SDS011;11585;51.450;-0.240;2022-11-21T04:12:28;8.25;;;2.22;;
22837;SDS011;11585;51.450;-0.240;2022-11-21T04:14:54;7.65;;;1.73;;
22837;SDS011;11585;51.450;-0.240;2022-11-21T04:17:19;9.88;;;1.60;;
22837;SDS011;11585;51.450;-0.240;2022-11-21T04:19:45;7.45;;;1.83;;
22837;SDS011;11585;51.450;-0.240;2022-11-21T04:22:10;6.47;;;2.05;;
22837;SDS011;11585;51.450;-0.240;2022-11-21T04:27:58;7.07;;;1.85;;
22837;SDS011;11585;51.450;-0.240;2022-11-21T04:30:31;17.08;;;2.15;;
22837;SDS011;11585;51.450;-0.240;2022-11-21T04:36:20;18.52;;;2.88;;
22837;SDS011;11585;51.450;-0.240;2022-11-21T04:38:45;11.50;;;2.35;;
22837;SDS011;11585;51.450;-0.240;2022-11-21T04:41:11;8.63;;;2.33;;
22837;SDS011;11585;51.450;-0.240;2022-11-21T04:46:58;12.85;;;2.30;;
22837;SDS011;11585;51.450;-0.240;2022-11-21T04:49:24;13.55;;;2.70;;
22837;SDS011;11585;51.450;-0.240;2022-11-21T04:51:50;9.70;;;1.88;;
22837;SDS011;11585;51.450;-0.240;2022-11-21T04:56:44;11.48;;;1.90;;
22837;SDS011;11585;51.450;-0.240;2022-11-21T04:59:10;19.20;;;3.10;;
22837;SDS011;11585;51.450;-0.240;2022-11-21T05:01:36;18.92;;;2.90;;
22837;SDS011;11585;51.450;-0.240;2022-11-21T05:07:08;15.90;;;2.50;;
22837;SDS011;11585;51.450;-0.240;2022-11-21T05:09:33;12.40;;;2.45;;
22837;SDS011;11585;51.450;-0.240;2022-11-21T05:11:59;13.45;;;2.45;;
22837;SDS011;11585;51.450;-0.240;2022-11-21T05:18:05;15.45;;;2.78;;
22837;SDS011;11585;51.450;-0.240;2022-11-21T05:20:31;8.85;;;2.30;;
22837;SDS011;11585;51.450;-0.240;2022-11-21T05:26:00;12.60;;;2.55;;
22837;SDS011;11585;51.450;-0.240;2022-11-21T05:28:25;18.65;;;3.72;;
22837;SDS011;11585;51.450;-0.240;2022-11-21T05:30:54;14.13;;;2.72;;
22837;SDS011;11585;51.450;-0.240;2022-11-21T05:40:06;11.55;;;2.50;;
22837;SDS011;11585;51.450;-0.240;2022-11-21T05:42:37;17.75;;;2.72;;
22837;SDS011;11585;51.450;-0.240;2022-11-21T05:51:50;16.58;;;2.47;;
22837;SDS011;11585;51.450;-0.240;2022-11-21T05:57:02;17.70;;;3.15;;
22837;SDS011;11585;51.450;-0.240;2022-11-21T05:59:28;13.77;;;2.30;;
22837;SDS011;11585;51.450;-0.240;2022-11-21T06:01:53;14.38;;;2.90;;
22837;SDS011;11585;51.450;-0.240;2022-11-21T06:04:38;13.00;;;2.42;;
22837;SDS011;11585;51.450;-0.240;2022-11-21T06:07:03;17.65;;;3.30;;
22837;SDS011;11585;51.450;-0.240;2022-11-21T06:09:30;11.50;;;2.72;;
22837;SDS011;11585;51.450;-0.240;2022-11-21T06:11:55;16.33;;;2.90;;
22837;SDS011;11585;51.450;-0.240;2022-11-21T06:17:43;20.85;;;3.30;;
22837;SDS011;11585;51.450;-0.240;2022-11-21T06:23:30;28.48;;;3.25;;
22837;SDS011;11585;51.450;-0.240;2022-11-21T06:25:57;14.30;;;3.10;;
22837;SDS011;11585;51.450;-0.240;2022-11-21T06:28:24;20.52;;;2.95;;
22837;SDS011;11585;51.450;-0.240;2022-11-21T06:30:50;10.18;;;2.58;;
22837;SDS011;11585;51.450;-0.240;2022-11-21T06:36:38;21.98;;;3.17;;
22837;SDS011;11585;51.450;-0.240;2022-11-21T06:39:04;25.52;;;3.60;;
22837;SDS011;11585;51.450;-0.240;2022-11-21T06:41:30;17.45;;;3.35;;
22837;SDS011;11585;51.450;-0.240;2022-11-21T06:47:18;28.38;;;3.53;;
22837;SDS011;11585;51.450;-0.240;2022-11-21T06:49:44;20.20;;;3.33;;
22837;SDS011;11585;51.450;-0.240;2022-11-21T06:52:09;18.98;;;3.55;;
22837;SDS011;11585;51.450;-0.240;2022-11-21T06:54:36;24.80;;;3.70;;
22837;SDS011;11585;51.450;-0.240;2022-11-21T06:57:02;21.83;;;3.85;;
22837;SDS011;11585;51.450;-0.240;2022-11-21T06:59:27;24.55;;;5.05;;
22837;SDS011;11585;51.450;-0.240;2022-11-21T07:01:53;21.45;;;3.95;;
22837;SDS011;11585;51.450;-0.240;2022-11-21T07:07:08;23.08;;;4.28;;
22837;SDS011;11585;51.450;-0.240;2022-11-21T07:09:33;22.92;;;3.22;;
22837;SDS011;11585;51.450;-0.240;2022-11-21T07:12:00;15.63;;;3.13;;
22837;SDS011;11585;51.450;-0.240;2022-11-21T07:17:30;23.15;;;3.10;;
22837;SDS011;11585;51.450;-0.240;2022-11-21T07:19:56;23.27;;;3.25;;
22837;SDS011;11585;51.450;-0.240;2022-11-21T07:22:22;14.27;;;3.38;;
22837;SDS011;11585;51.450;-0.240;2022-11-21T07:28:09;16.27;;;2.83;;
22837;SDS011;11585;51.450;-0.240;2022-11-21T07:30:35;14.45;;;2.85;;
22837;SDS011;11585;51.450;-0.240;2022-11-21T07:36:23;27.35;;;3.63;;
22837;SDS011;11585;51.450;-0.240;2022-11-21T07:38:48;13.00;;;3.03;;
22837;SDS011;11585;51.450;-0.240;2022-11-21T07:41:14;20.63;;;3.13;;
22837;SDS011;11585;51.450;-0.240;2022-11-21T07:47:02;20.00;;;2.95;;
22837;SDS011;11585;51.450;-0.240;2022-11-21T07:49:27;17.02;;;2.83;;
22837;SDS011;11585;51.450;-0.240;2022-11-21T07:51:53;24.38;;;3.55;;
22837;SDS011;11585;51.450;-0.240;2022-11-21T08:00:31;17.50;;;3.03;;
22837;SDS011;11585;51.450;-0.240;2022-11-21T08:02:59;18.83;;;2.72;;
22837;SDS011;11585;51.450;-0.240;2022-11-21T08:05:28;15.60;;;2.80;;
22837;SDS011;11585;51.450;-0.240;2022-11-21T08:07:54;26.80;;;3.22;;
22837;SDS011;11585;51.450;-0.240;2022-11-21T08:10:21;28.80;;;3.67;;
22837;SDS011;11585;51.450;-0.240;2022-11-21T08:15:35;19.57;;;3.30;;
22837;SDS011;11585;51.450;-0.240;2022-11-21T08:18:17;17.67;;;2.70;;
22837;SDS011;11585;51.450;-0.240;2022-11-21T08:20:43;18.40;;;2.45;;
22837;SDS011;11585;51.450;-0.240;2022-11-21T08:23:09;24.17;;;2.97;;
22837;SDS011;11585;51.450;-0.240;2022-11-21T08:25:35;21.10;;;3.22;;
22837;SDS011;11585;51.450;-0.240;2022-11-21T08:28:02;26.52;;;3.42;;
22837;SDS011;11585;51.450;-0.240;2022-11-21T08:30:28;23.15;;;3.03;;
22837;SDS011;11585;51.450;-0.240;2022-11-21T08:32:57;18.25;;;3.28;;
22837;SDS011;11585;51.450;-0.240;2022-11-21T08:35:29;24.67;;;2.58;;
22837;SDS011;11585;51.450;-0.240;2022-11-21T08:43:01;28.05;;;3.58;;
22837;SDS011;11585;51.450;-0.240;2022-11-21T08:45:42;28.83;;;3.50;;
22837;SDS011;11585;51.450;-0.240;2022-11-21T08:48:19;11.82;;;2.33;;
22837;SDS011;11585;51.450;-0.240;2022-11-21T08:50:47;12.43;;;2.28;;
22837;SDS011;11585;51.450;-0.240;2022-11-21T08:56:35;17.55;;;3.15;;
22837;SDS011;11585;51.450;-0.240;2022-11-21T08:59:00;14.00;;;2.80;;
22837;SDS011;11585;51.450;-0.240;2022-11-21T09:01:26;19.38;;;2.45;;
22837;SDS011;11585;51.450;-0.240;2022-11-21T09:03:54;23.60;;;3.08;;
22837;SDS011;11585;51.450;-0.240;2022-11-21T09:06:20;15.82;;;3.47;;
22837;SDS011;11585;51.450;-0.240;2022-11-21T09:08:49;18.08;;;3.08;;
22837;SDS011;11585;51.450;-0.240;2022-11-21T09:17:12;12.65;;;2.53;;
22837;SDS011;11585;51.450;-0.240;2022-11-21T09:22:44;13.10;;;2.65;;
22837;SDS011;11585;51.450;-0.240;2022-11-21T09:25:10;20.10;;;2.65;;
22837;SDS011;11585;51.450;-0.240;2022-11-21T09:27:35;19.77;;;2.83;;
22837;SDS011;11585;51.450;-0.240;2022-11-21T09:30:01;18.30;;;2.78;;
22837;SDS011;11585;51.450;-0.240;2022-11-21T09:32:27;27.33;;;3.42;;
22837;SDS011;11585;51.450;-0.240;2022-11-21T09:34:54;11.70;;;2.70;;
22837;SDS011;11585;51.450;-0.240;2022-11-21T09:37:20;30.92;;;3.38;;
22837;SDS011;11585;51.450;-0.240;2022-11-21T09:39:46;21.60;;;3.78;;
22837;SDS011;11585;51.450;-0.240;2022-11-21T09:42:35;16.38;;;2.60;;
22837;SDS011;11585;51.450;-0.240;2022-11-21T09:45:18;24.70;;;3.13;;
22837;SDS011;11585;51.450;-0.240;2022-11-21T09:48:08;15.05;;;3.70;;
22837;SDS011;11585;51.450;-0.240;2022-11-21T09:50:38;17.23;;;3.35;;
22837;SDS011;11585;51.450;-0.240;2022-11-21T09:55:58;26.50;;;3.78;;
22837;SDS011;11585;51.450;-0.240;2022-11-21T09:58:38;18.58;;;3.15;;
22837;SDS011;11585;51.450;-0.240;2022-11-21T10:01:23;16.42;;;3.00;;
22837;SDS011;11585;51.450;-0.240;2022-11-21T10:03:50;18.17;;;3.35;;
22837;SDS011;11585;51.450;-0.240;2022-11-21T10:11:43;15.95;;;2.90;;
22837;SDS011;11585;51.450;-0.240;2022-11-21T10:14:53;27.00;;;3.78;;
22837;SDS011;11585;51.450;-0.240;2022-11-21T10:25:56;24.42;;;3.60;;
22837;SDS011;11585;51.450;-0.240;2022-11-21T10:28:54;16.60;;;3.45;;
22837;SDS011;11585;51.450;-0.240;2022-11-21T10:31:47;21.50;;;3.00;;
22837;SDS011;11585;51.450;-0.240;2022-11-21T10:34:20;30.52;;;3.50;;
22837;SDS011;11585;51.450;-0.240;2022-11-21T10:36:59;21.38;;;3.75;;
22837;SDS011;11585;51.450;-0.240;2022-11-21T10:39:32;12.00;;;3.28;;
22837;SDS011;11585;51.450;-0.240;2022-11-21T10:44:52;17.95;;;3.50;;
22837;SDS011;11585;51.450;-0.240;2022-11-21T10:47:36;27.20;;;3.83;;
22837;SDS011;11585;51.450;-0.240;2022-11-21T10:52:30;22.75;;;3.55;;
22837;SDS011;11585;51.450;-0.240;2022-11-21T10:55:24;23.33;;;3.28;;
22837;SDS011;11585;51.450;-0.240;2022-11-21T10:57:50;25.13;;;3.47;;
22837;SDS011;11585;51.450;-0.240;2022-11-21T11:00:24;27.10;;;3.75;;
22837;SDS011;11585;51.450;-0.240;2022-11-21T11:05:35;17.13;;;3.67;;
22837;SDS011;11585;51.450;-0.240;2022-11-21T11:10:38;33.08;;;3.72;;
22837;SDS011;11585;51.450;-0.240;2022-11-21T11:13:18;31.70;;;4.60;;
22837;SDS011;11585;51.450;-0.240;2022-11-21T11:16:13;36.85;;;4.13;;
22837;SDS011;11585;51.450;-0.240;2022-11-21T11:18:45;18.80;;;3.00;;
22837;SDS011;11585;51.450;-0.240;2022-11-21T11:21:23;19.70;;;3.53;;
22837;SDS011;11585;51.450;-0.240;2022-11-21T11:24:04;18.10;;;2.70;;
22837;SDS011;11585;51.450;-0.240;2022-11-21T11:27:00;9.85;;;2.60;;
22837;SDS011;11585;51.450;-0.240;2022-11-21T11:29:28;17.70;;;2.60;;
22837;SDS011;11585;51.450;-0.240;2022-11-21T11:34:21;23.95;;;3.78;;
22837;SDS011;11585;51.450;-0.240;2022-11-21T11:36:54;28.17;;;3.97;;
22837;SDS011;11585;51.450;-0.240;2022-11-21T11:48:15;27.60;;;3.67;;
22837;SDS011;11585;51.450;-0.240;2022-11-21T11:50:55;22.77;;;3.85;;
22837;SDS011;11585;51.450;-0.240;2022-11-21T11:53:27;23.02;;;3.55;;
22837;SDS011;11585;51.450;-0.240;2022-11-21T11:58:47;24.40;;;3.80;;
22837;SDS011;11585;51.450;-0.240;2022-11-21T12:01:22;15.35;;;3.65;;
22837;SDS011;11585;51.450;-0.240;2022-11-21T12:04:03;32.38;;;4.40;;
22837;SDS011;11585;51.450;-0.240;2022-11-21T12:06:45;17.25;;;3.67;;
22837;SDS011;11585;51.450;-0.240;2022-11-21T12:12:09;31.90;;;5.13;;
22837;SDS011;11585;51.450;-0.240;2022-11-21T12:15:02;26.80;;;3.80;;
22837;SDS011;11585;51.450;-0.240;2022-11-21T12:23:46;22.60;;;3.38;;
22837;SDS011;11585;51.450;-0.240;2022-11-21T12:29:12;34.20;;;3.90;;
22837;SDS011;11585;51.450;-0.240;2022-11-21T12:37:25;27.88;;;3.63;;
22837;SDS011;11585;51.450;-0.240;2022-11-21T12:41:19;28.17;;;3.72;;
22837;SDS011;11585;51.450;-0.240;2022-11-21T12:43:58;19.00;;;3.72;;
22837;SDS011;11585;51.450;-0.240;2022-11-21T12:52:03;17.48;;;3.15;;
22837;SDS011;11585;51.450;-0.240;2022-11-21T12:58:05;19.90;;;4.25;;
22837;SDS011;11585;51.450;-0.240;2022-11-21T13:01:10;24.67;;;3.28;;
22837;SDS011;11585;51.450;-0.240;2022-11-21T13:06:41;12.13;;;2.63;;
22837;SDS011;11585;51.450;-0.240;2022-11-21T13:09:11;13.45;;;2.78;;
22837;SDS011;11585;51.450;-0.240;2022-11-21T13:14:34;18.63;;;2.58;;
22837;SDS011;11585;51.450;-0.240;2022-11-21T13:20:04;20.38;;;2.72;;
22837;SDS011;11585;51.450;-0.240;2022-11-21T13:25:03;15.55;;;2.83;;
22837;SDS011;11585;51.450;-0.240;2022-11-21T13:27:37;8.77;;;2.15;;
22837;SDS011;11585;51.450;-0.240;2022-11-21T13:32:39;11.63;;;1.73;;
22837;SDS011;11585;51.450;-0.240;2022-11-21T13:57:03;12.60;;;1.77;;
22837;SDS011;11585;51.450;-0.240;2022-11-21T14:04:40;5.85;;;1.85;;
22837;SDS011;11585;51.450;-0.240;2022-11-21T14:07:29;9.88;;;1.77;;
22837;SDS011;11585;51.450;-0.240;2022-11-21T14:10:00;9.30;;;1.65;;
22837;SDS011;11585;51.450;-0.240;2022-11-21T14:12:29;5.27;;;1.43;;
22837;SDS011;11585;51.450;-0.240;2022-11-21T14:25:18;5.88;;;1.30;;
22837;SDS011;11585;51.450;-0.240;2022-11-21T14:27:47;12.15;;;1.95;;
22837;SDS011;11585;51.450;-0.240;2022-11-21T14:30:29;10.52;;;1.83;;
22837;SDS011;11585;51.450;-0.240;2022-11-21T14:36:12;3.88;;;1.70;;
22837;SDS011;11585;51.450;-0.240;2022-11-21T14:38:50;9.23;;;1.55;;
22837;SDS011;11585;51.450;-0.240;2022-11-21T14:44:02;10.85;;;2.45;;
22837;SDS011;11585;51.450;-0.240;2022-11-21T14:52:05;12.38;;;1.95;;
22837;SDS011;11585;51.450;-0.240;2022-11-21T14:57:59;14.02;;;1.77;;
22837;SDS011;11585;51.450;-0.240;2022-11-21T15:00:30;8.88;;;2.15;;
22837;SDS011;11585;51.450;-0.240;2022-11-21T15:03:02;9.73;;;1.88;;
22837;SDS011;11585;51.450;-0.240;2022-11-21T15:05:28;5.20;;;1.55;;
22837;SDS011;11585;51.450;-0.240;2022-11-21T15:07:56;9.18;;;1.60;;
22837;SDS011;11585;51.450;-0.240;2022-11-21T15:10:31;8.18;;;1.55;;
22837;SDS011;11585;51.450;-0.240;2022-11-21T15:15:48;12.13;;;1.40;;
22837;SDS011;11585;51.450;-0.240;2022-11-21T15:18:21;6.10;;;1.27;;
22837;SDS011;11585;51.450;-0.240;2022-11-21T15:20:49;7.25;;;2.38;;
22837;SDS011;11585;51.450;-0.240;2022-11-21T15:23:31;5.15;;;1.92;;
22837;SDS011;11585;51.450;-0.240;2022-11-21T15:26:30;11.45;;;2.10;;
22837;SDS011;11585;51.450;-0.240;2022-11-21T15:29:15;9.63;;;2.42;;
22837;SDS011;11585;51.450;-0.240;2022-11-21T15:34:34;12.10;;;2.25;;
22837;SDS011;11585;51.450;-0.240;2022-11-21T15:37:04;7.28;;;2.00;;
22837;SDS011;11585;51.450;-0.240;2022-11-21T15:39:40;12.65;;;2.15;;
22837;SDS011;11585;51.450;-0.240;2022-11-21T15:47:23;4.70;;;2.20;;
22837;SDS011;11585;51.450;-0.240;2022-11-21T15:49:49;12.60;;;3.97;;
22837;SDS011;11585;51.450;-0.240;2022-11-21T15:52:14;9.00;;;2.38;;
22837;SDS011;11585;51.450;-0.240;2022-11-21T15:54:40;3.53;;;1.50;;
22837;SDS011;11585;51.450;-0.240;2022-11-21T15:57:07;6.95;;;1.50;;
22837;SDS011;11585;51.450;-0.240;2022-11-21T15:59:39;7.22;;;2.35;;
22837;SDS011;11585;51.450;-0.240;2022-11-21T16:02:05;9.48;;;3.15;;
22837;SDS011;11585;51.450;-0.240;2022-11-21T16:04:33;9.32;;;2.25;;
22837;SDS011;11585;51.450;-0.240;2022-11-21T16:06:58;6.05;;;2.55;;
22837;SDS011;11585;51.450;-0.240;2022-11-21T16:09:24;5.90;;;2.20;;
22837;SDS011;11585;51.450;-0.240;2022-11-21T16:11:50;6.38;;;2.72;;
22837;SDS011;11585;51.450;-0.240;2022-11-21T16:14:15;6.93;;;2.60;;
22837;SDS011;11585;51.450;-0.240;2022-11-21T16:16:42;5.88;;;2.40;;
22837;SDS011;11585;51.450;-0.240;2022-11-21T16:19:09;10.23;;;2.88;;
22837;SDS011;11585;51.450;-0.240;2022-11-21T16:21:35;10.15;;;3.00;;
22837;SDS011;11585;51.450;-0.240;2022-11-21T16:24:01;10.25;;;3.47;;
22837;SDS011;11585;51.450;-0.240;2022-11-21T16:26:27;10.60;;;2.80;;
22837;SDS011;11585;51.450;-0.240;2022-11-21T16:28:56;7.55;;;2.50;;
22837;SDS011;11585;51.450;-0.240;2022-11-21T16:31:24;6.50;;;2.28;;
22837;SDS011;11585;51.450;-0.240;2022-11-21T16:33:51;7.20;;;3.28;;
22837;SDS011;11585;51.450;-0.240;2022-11-21T16:36:20;7.85;;;2.80;;
22837;SDS011;11585;51.450;-0.240;2022-11-21T16:38:48;4.95;;;2.13;;
22837;SDS011;11585;51.450;-0.240;2022-11-21T16:41:15;6.50;;;2.30;;
22837;SDS011;11585;51.450;-0.240;2022-11-21T16:43:50;9.02;;;2.58;;
22837;SDS011;11585;51.450;-0.240;2022-11-21T16:46:17;6.80;;;2.10;;
22837;SDS011;11585;51.450;-0.240;2022-11-21T16:48:44;4.22;;;1.90;;
22837;SDS011;11585;51.450;-0.240;2022-11-21T16:53:40;5.22;;;1.75;;
22837;SDS011;11585;51.450;-0.240;2022-11-21T16:56:06;6.00;;;1.95;;
22837;SDS011;11585;51.450;-0.240;2022-11-21T16:58:32;3.65;;;1.35;;
22837;SDS011;11585;51.450;-0.240;2022-11-21T17:01:08;4.05;;;1.40;;
22837;SDS011;11585;51.450;-0.240;2022-11-21T17:03:35;7.60;;;1.60;;
22837;SDS011;11585;51.450;-0.240;2022-11-21T17:06:02;4.32;;;1.83;;
22837;SDS011;11585;51.450;-0.240;2022-11-21T17:08:28;3.88;;;2.20;;
22837;SDS011;11585;51.450;-0.240;2022-11-21T17:10:54;4.22;;;1.40;;
22837;SDS011;11585;51.450;-0.240;2022-11-21T17:13:19;9.73;;;1.55;;
22837;SDS011;11585;51.450;-0.240;2022-11-21T17:15:45;1.08;;;0.90;;
22837;SDS011;11585;51.450;-0.240;2022-11-21T17:18:10;5.38;;;1.20;;
22837;SDS011;11585;51.450;-0.240;2022-11-21T17:20:36;0.93;;;0.70;;
22837;SDS011;11585;51.450;-0.240;2022-11-21T17:23:02;1.42;;;1.00;;
22837;SDS011;11585;51.450;-0.240;2022-11-21T17:25:28;0.82;;;0.70;;
22837;SDS011;11585;51.450;-0.240;2022-11-21T17:27:53;3.90;;;2.30;;
22837;SDS011;11585;51.450;-0.240;2022-11-21T17:30:19;2.67;;;1.15;;
22837;SDS011;11585;51.450;-0.240;2022-11-21T17:32:46;5.88;;;1.27;;
22837;SDS011;11585;51.450;-0.240;2022-11-21T17:35:12;1.88;;;0.80;;
22837;SDS011;11585;51.450;-0.240;2022-11-21T17:37:41;3.83;;;1.35;;
22837;SDS011;11585;51.450;-0.240;2022-11-21T17:40:09;7.85;;;1.20;;
22837;SDS011;11585;51.450;-0.240;2022-11-21T17:42:38;2.42;;;1.08;;
22837;SDS011;11585;51.450;-0.240;2022-11-21T17:45:07;3.17;;;0.90;;
22837;SDS011;11585;51.450;-0.240;2022-11-21T17:47:33;3.22;;;1.20;;
22837;SDS011;11585;51.450;-0.240;2022-11-21T17:49:58;5.00;;;1.27;;
22837;SDS011;11585;51.450;-0.240;2022-11-21T17:52:36;6.30;;;1.17;;
22837;SDS011;11585;51.450;-0.240;2022-11-21T17:57:31;5.47;;;1.15;;
22837;SDS011;11585;51.450;-0.240;2022-11-21T17:59:57;3.13;;;1.27;;
22837;SDS011;11585;51.450;-0.240;2022-11-21T18:02:22;3.53;;;1.02;;
22837;SDS011;11585;51.450;-0.240;2022-11-21T18:07:22;2.60;;;1.17;;
22837;SDS011;11585;51.450;-0.240;2022-11-21T18:09:51;7.07;;;1.20;;
22837;SDS011;11585;51.450;-0.240;2022-11-21T18:12:20;6.88;;;1.13;;
22837;SDS011;11585;51.450;-0.240;2022-11-21T18:14:47;7.70;;;1.65;;
22837;SDS011;11585;51.450;-0.240;2022-11-21T18:17:16;6.57;;;1.17;;
22837;SDS011;11585;51.450;-0.240;2022-11-21T18:19:44;6.35;;;1.70;;
22837;SDS011;11585;51.450;-0.240;2022-11-21T18:22:15;9.07;;;1.70;;
22837;SDS011;11585;51.450;-0.240;2022-11-21T18:24:47;10.55;;;1.70;;
22837;SDS011;11585;51.450;-0.240;2022-11-21T18:27:24;16.05;;;2.55;;
22837;SDS011;11585;51.450;-0.240;2022-11-21T18:29:51;12.48;;;1.88;;
22837;SDS011;11585;51.450;-0.240;2022-11-21T18:32:17;5.03;;;1.88;;
22837;SDS011;11585;51.450;-0.240;2022-11-21T18:35:02;4.88;;;1.27;;
22837;SDS011;11585;51.450;-0.240;2022-11-21T18:37:48;7.35;;;1.48;;
22837;SDS011;11585;51.450;-0.240;2022-11-21T18:40:14;9.02;;;1.67;;
22837;SDS011;11585;51.450;-0.240;2022-11-21T18:42:40;9.65;;;1.45;;
22837;SDS011;11585;51.450;-0.240;2022-11-21T18:45:06;12.60;;;1.83;;
22837;SDS011;11585;51.450;-0.240;2022-11-21T18:47:37;14.02;;;1.88;;
22837;SDS011;11585;51.450;-0.240;2022-11-21T18:50:06;13.90;;;1.85;;
22837;SDS011;11585;51.450;-0.240;2022-11-21T18:52:35;10.50;;;1.88;;
22837;SDS011;11585;51.450;-0.240;2022-11-21T18:55:04;7.55;;;1.90;;
22837;SDS011;11585;51.450;-0.240;2022-11-21T18:57:30;10.02;;;1.75;;
22837;SDS011;11585;51.450;-0.240;2022-11-21T18:59:59;17.15;;;2.08;;
22837;SDS011;11585;51.450;-0.240;2022-11-21T19:02:25;5.35;;;1.92;;
22837;SDS011;11585;51.450;-0.240;2022-11-21T19:04:51;13.07;;;2.30;;
22837;SDS011;11585;51.450;-0.240;2022-11-21T19:07:19;8.73;;;1.60;;
22837;SDS011;11585;51.450;-0.240;2022-11-21T19:09:47;14.48;;;2.20;;
22837;SDS011;11585;51.450;-0.240;2022-11-21T19:12:20;18.75;;;2.90;;
22837;SDS011;11585;51.450;-0.240;2022-11-21T19:14:47;9.07;;;2.22;;
22837;SDS011;11585;51.450;-0.240;2022-11-21T19:17:16;9.93;;;1.60;;
22837;SDS011;11585;51.450;-0.240;2022-11-21T19:19:42;13.27;;;2.20;;
22837;SDS011;11585;51.450;-0.240;2022-11-21T19:22:34;17.80;;;2.13;;
22837;SDS011;11585;51.450;-0.240;2022-11-21T19:28:19;8.57;;;2.20;;
22837;SDS011;11585;51.450;-0.240;2022-11-21T19:30:53;15.85;;;2.33;;
22837;SDS011;11585;51.450;-0.240;2022-11-21T19:39:35;15.48;;;3.13;;
22837;SDS011;11585;51.450;-0.240;2022-11-21T19:42:11;22.80;;;2.47;;
22837;SDS011;11585;51.450;-0.240;2022-11-21T19:48:17;15.85;;;2.40;;
22837;SDS011;11585;51.450;-0.240;2022-11-21T19:51:06;12.77;;;2.45;;
22837;SDS011;11585;51.450;-0.240;2022-11-21T19:56:35;11.52;;;2.47;;
22837;SDS011;11585;51.450;-0.240;2022-11-21T19:59:09;9.75;;;2.15;;
22837;SDS011;11585;51.450;-0.240;2022-11-21T20:01:59;16.08;;;3.15;;
22837;SDS011;11585;51.450;-0.240;2022-11-21T20:07:39;19.05;;;2.45;;
22837;SDS011;11585;51.450;-0.240;2022-11-21T20:10:08;20.08;;;3.10;;